East Montpelier, Vermont
Current Conditions -  °F | °C
As of 12:51 PM on Thursday 23 Oct 2014 (Local Time) from KMPV Reporting Station
Heavy Rain Heavy Rain  
Wind Chill:   Ceiling: 800
Heat Index:   Visibility: 2.5mi
Dew Point:   Wind: 9mph
Humidity: 93%   Direction: 340°NNW
Pressure: 29.92"   Gusts: NA
Location:  44.27°N, 72.49°W
Report Text: KMPV 231651Z AUTO 34008KT 2 1/2SM +RA BR OVC008 06/05 A2992 RMK AO2 RAB09 CIG 005V012 SLP139 P0007 T00610050
Loading
Personal Weather Stations






























Interactive Weather Map
Tropical Storm Tracking
New forecast layout! Learn more

10-Day Weather Forecast

Advertisements
Track Severe Weather on mobile